sensor_id;sensor_type;location;lat;lon;timestamp;P1;durP1;ratioP1;P2;durP2;ratioP2
59308;SDS011;48433;53.016;-2.260;2022-09-09T00:03:51;21.17;;;10.83;;
59308;SDS011;48433;53.016;-2.260;2022-09-09T00:09:52;20.75;;;12.90;;
59308;SDS011;48433;53.016;-2.260;2022-09-09T00:15:41;17.27;;;11.00;;
59308;SDS011;48433;53.016;-2.260;2022-09-09T00:20:49;15.52;;;8.98;;
59308;SDS011;48433;53.016;-2.260;2022-09-09T00:23:27;19.48;;;11.88;;
59308;SDS011;48433;53.016;-2.260;2022-09-09T00:26:11;19.17;;;11.60;;
59308;SDS011;48433;53.016;-2.260;2022-09-09T00:29:05;22.65;;;12.90;;
59308;SDS011;48433;53.016;-2.260;2022-09-09T00:31:37;19.65;;;12.88;;
59308;SDS011;48433;53.016;-2.260;2022-09-09T00:34:09;23.55;;;12.93;;
59308;SDS011;48433;53.016;-2.260;2022-09-09T00:36:40;14.93;;;9.27;;
59308;SDS011;48433;53.016;-2.260;2022-09-09T00:39:13;15.05;;;9.18;;
59308;SDS011;48433;53.016;-2.260;2022-09-09T00:42:13;16.40;;;9.45;;
59308;SDS011;48433;53.016;-2.260;2022-09-09T00:55:31;17.52;;;10.98;;
59308;SDS011;48433;53.016;-2.260;2022-09-09T00:58:08;18.40;;;11.32;;
59308;SDS011;48433;53.016;-2.260;2022-09-09T01:28:55;24.80;;;14.07;;
59308;SDS011;48433;53.016;-2.260;2022-09-09T01:31:58;23.15;;;12.07;;
59308;SDS011;48433;53.016;-2.260;2022-09-09T01:34:36;21.30;;;13.20;;
59308;SDS011;48433;53.016;-2.260;2022-09-09T01:37:10;19.83;;;13.50;;
59308;SDS011;48433;53.016;-2.260;2022-09-09T01:39:40;19.05;;;11.90;;
59308;SDS011;48433;53.016;-2.260;2022-09-09T01:42:14;25.48;;;14.20;;
59308;SDS011;48433;53.016;-2.260;2022-09-09T01:44:44;20.63;;;13.25;;
59308;SDS011;48433;53.016;-2.260;2022-09-09T01:47:12;25.05;;;14.77;;
59308;SDS011;48433;53.016;-2.260;2022-09-09T01:50:10;23.13;;;14.23;;
59308;SDS011;48433;53.016;-2.260;2022-09-09T01:52:42;20.98;;;13.57;;
59308;SDS011;48433;53.016;-2.260;2022-09-09T01:55:15;21.63;;;13.23;;
59308;SDS011;48433;53.016;-2.260;2022-09-09T02:00:48;28.17;;;15.10;;
59308;SDS011;48433;53.016;-2.260;2022-09-09T02:03:27;24.73;;;14.95;;
59308;SDS011;48433;53.016;-2.260;2022-09-09T02:06:41;24.15;;;15.05;;
59308;SDS011;48433;53.016;-2.260;2022-09-09T02:09:15;22.15;;;14.57;;
59308;SDS011;48433;53.016;-2.260;2022-09-09T02:11:46;25.30;;;15.75;;
59308;SDS011;48433;53.016;-2.260;2022-09-09T02:14:27;26.65;;;15.35;;
59308;SDS011;48433;53.016;-2.260;2022-09-09T02:17:05;23.85;;;14.60;;
59308;SDS011;48433;53.016;-2.260;2022-09-09T02:20:02;21.55;;;14.38;;
59308;SDS011;48433;53.016;-2.260;2022-09-09T02:22:45;23.17;;;13.85;;
59308;SDS011;48433;53.016;-2.260;2022-09-09T02:25:19;22.73;;;14.60;;
59308;SDS011;48433;53.016;-2.260;2022-09-09T02:27:50;25.23;;;15.88;;
59308;SDS011;48433;53.016;-2.260;2022-09-09T02:30:19;23.55;;;15.48;;
59308;SDS011;48433;53.016;-2.260;2022-09-09T02:32:56;22.77;;;14.70;;
59308;SDS011;48433;53.016;-2.260;2022-09-09T02:35:41;25.60;;;14.75;;
59308;SDS011;48433;53.016;-2.260;2022-09-09T02:38:13;21.67;;;14.32;;
59308;SDS011;48433;53.016;-2.260;2022-09-09T02:40:54;25.27;;;15.13;;
59308;SDS011;48433;53.016;-2.260;2022-09-09T02:43:22;21.27;;;14.23;;
59308;SDS011;48433;53.016;-2.260;2022-09-09T02:51:40;21.75;;;13.73;;
59308;SDS011;48433;53.016;-2.260;2022-09-09T02:54:40;17.83;;;12.30;;
59308;SDS011;48433;53.016;-2.260;2022-09-09T02:57:11;18.77;;;13.75;;
59308;SDS011;48433;53.016;-2.260;2022-09-09T02:59:46;24.45;;;13.55;;
59308;SDS011;48433;53.016;-2.260;2022-09-09T03:02:14;19.77;;;12.50;;
59308;SDS011;48433;53.016;-2.260;2022-09-09T03:04:45;25.02;;;12.38;;
59308;SDS011;48433;53.016;-2.260;2022-09-09T03:07:19;20.00;;;12.43;;
59308;SDS011;48433;53.016;-2.260;2022-09-09T03:09:50;23.20;;;12.38;;
59308;SDS011;48433;53.016;-2.260;2022-09-09T03:12:17;18.95;;;12.18;;
59308;SDS011;48433;53.016;-2.260;2022-09-09T03:14:45;22.92;;;12.02;;
59308;SDS011;48433;53.016;-2.260;2022-09-09T03:17:13;20.33;;;12.48;;
59308;SDS011;48433;53.016;-2.260;2022-09-09T03:19:48;23.25;;;12.25;;
59308;SDS011;48433;53.016;-2.260;2022-09-09T03:22:17;19.92;;;12.50;;
59308;SDS011;48433;53.016;-2.260;2022-09-09T03:24:45;24.95;;;12.95;;
59308;SDS011;48433;53.016;-2.260;2022-09-09T03:27:14;23.65;;;13.40;;
59308;SDS011;48433;53.016;-2.260;2022-09-09T03:29:42;23.35;;;13.50;;
59308;SDS011;48433;53.016;-2.260;2022-09-09T03:32:15;23.08;;;13.88;;
59308;SDS011;48433;53.016;-2.260;2022-09-09T03:34:44;28.20;;;15.35;;
59308;SDS011;48433;53.016;-2.260;2022-09-09T03:37:15;22.95;;;14.57;;
59308;SDS011;48433;53.016;-2.260;2022-09-09T03:39:45;26.13;;;14.52;;
59308;SDS011;48433;53.016;-2.260;2022-09-09T03:42:15;19.95;;;13.93;;
59308;SDS011;48433;53.016;-2.260;2022-09-09T03:44:49;23.02;;;14.15;;
59308;SDS011;48433;53.016;-2.260;2022-09-09T03:47:22;29.23;;;15.43;;
59308;SDS011;48433;53.016;-2.260;2022-09-09T03:49:55;25.35;;;14.50;;
59308;SDS011;48433;53.016;-2.260;2022-09-09T03:52:22;28.98;;;15.32;;
59308;SDS011;48433;53.016;-2.260;2022-09-09T03:54:53;24.23;;;15.63;;
59308;SDS011;48433;53.016;-2.260;2022-09-09T03:57:20;23.83;;;15.45;;
59308;SDS011;48433;53.016;-2.260;2022-09-09T03:59:49;25.38;;;14.98;;
59308;SDS011;48433;53.016;-2.260;2022-09-09T04:02:17;21.73;;;14.27;;
59308;SDS011;48433;53.016;-2.260;2022-09-09T04:04:45;24.48;;;13.65;;
59308;SDS011;48433;53.016;-2.260;2022-09-09T04:07:12;22.73;;;13.95;;
59308;SDS011;48433;53.016;-2.260;2022-09-09T04:09:40;22.50;;;13.48;;
59308;SDS011;48433;53.016;-2.260;2022-09-09T04:12:08;21.02;;;14.07;;
59308;SDS011;48433;53.016;-2.260;2022-09-09T04:14:40;25.50;;;16.02;;
59308;SDS011;48433;53.016;-2.260;2022-09-09T04:17:07;21.27;;;14.38;;
59308;SDS011;48433;53.016;-2.260;2022-09-09T04:19:36;20.83;;;12.55;;
59308;SDS011;48433;53.016;-2.260;2022-09-09T04:22:04;19.90;;;14.23;;
59308;SDS011;48433;53.016;-2.260;2022-09-09T04:24:32;21.08;;;13.93;;
59308;SDS011;48433;53.016;-2.260;2022-09-09T04:27:01;19.65;;;13.57;;
59308;SDS011;48433;53.016;-2.260;2022-09-09T04:29:30;24.98;;;14.95;;
59308;SDS011;48433;53.016;-2.260;2022-09-09T04:31:58;20.95;;;15.18;;
59308;SDS011;48433;53.016;-2.260;2022-09-09T04:34:25;24.88;;;14.68;;
59308;SDS011;48433;53.016;-2.260;2022-09-09T04:36:54;22.63;;;14.45;;
59308;SDS011;48433;53.016;-2.260;2022-09-09T04:39:22;22.70;;;14.63;;
59308;SDS011;48433;53.016;-2.260;2022-09-09T04:41:50;22.27;;;15.10;;
59308;SDS011;48433;53.016;-2.260;2022-09-09T04:44:18;21.52;;;14.50;;
59308;SDS011;48433;53.016;-2.260;2022-09-09T04:46:46;29.05;;;15.55;;
59308;SDS011;48433;53.016;-2.260;2022-09-09T04:49:14;22.95;;;14.63;;
59308;SDS011;48433;53.016;-2.260;2022-09-09T04:51:43;29.73;;;16.40;;
59308;SDS011;48433;53.016;-2.260;2022-09-09T04:54:10;23.25;;;15.73;;
59308;SDS011;48433;53.016;-2.260;2022-09-09T04:56:42;24.38;;;15.93;;
59308;SDS011;48433;53.016;-2.260;2022-09-09T04:59:11;25.15;;;14.13;;
59308;SDS011;48433;53.016;-2.260;2022-09-09T05:01:45;25.83;;;16.00;;
59308;SDS011;48433;53.016;-2.260;2022-09-09T05:04:13;22.45;;;14.77;;
59308;SDS011;48433;53.016;-2.260;2022-09-09T05:06:43;28.00;;;16.27;;
59308;SDS011;48433;53.016;-2.260;2022-09-09T05:09:12;27.42;;;15.52;;
59308;SDS011;48433;53.016;-2.260;2022-09-09T05:11:40;28.20;;;16.40;;
59308;SDS011;48433;53.016;-2.260;2022-09-09T05:14:24;23.92;;;15.52;;
59308;SDS011;48433;53.016;-2.260;2022-09-09T05:16:51;30.23;;;16.70;;
59308;SDS011;48433;53.016;-2.260;2022-09-09T05:19:20;25.20;;;15.90;;
59308;SDS011;48433;53.016;-2.260;2022-09-09T05:21:48;26.70;;;16.08;;
59308;SDS011;48433;53.016;-2.260;2022-09-09T05:24:21;28.27;;;15.45;;
59308;SDS011;48433;53.016;-2.260;2022-09-09T05:29:20;29.20;;;15.82;;
59308;SDS011;48433;53.016;-2.260;2022-09-09T05:31:48;26.27;;;15.77;;
59308;SDS011;48433;53.016;-2.260;2022-09-09T05:34:19;26.70;;;17.02;;
59308;SDS011;48433;53.016;-2.260;2022-09-09T05:36:49;28.50;;;16.92;;
59308;SDS011;48433;53.016;-2.260;2022-09-09T05:39:17;26.10;;;15.15;;
59308;SDS011;48433;53.016;-2.260;2022-09-09T05:41:45;22.58;;;14.55;;
59308;SDS011;48433;53.016;-2.260;2022-09-09T05:44:13;31.42;;;15.15;;
59308;SDS011;48433;53.016;-2.260;2022-09-09T05:46:40;28.83;;;17.58;;
59308;SDS011;48433;53.016;-2.260;2022-09-09T05:49:08;28.90;;;17.60;;
59308;SDS011;48433;53.016;-2.260;2022-09-09T05:51:36;25.65;;;16.77;;
59308;SDS011;48433;53.016;-2.260;2022-09-09T05:54:09;30.48;;;17.95;;
59308;SDS011;48433;53.016;-2.260;2022-09-09T05:56:41;28.60;;;16.50;;
59308;SDS011;48433;53.016;-2.260;2022-09-09T05:59:09;30.38;;;17.98;;
59308;SDS011;48433;53.016;-2.260;2022-09-09T06:01:39;26.60;;;15.98;;
59308;SDS011;48433;53.016;-2.260;2022-09-09T06:04:17;30.75;;;17.13;;
59308;SDS011;48433;53.016;-2.260;2022-09-09T06:06:48;29.20;;;17.87;;
59308;SDS011;48433;53.016;-2.260;2022-09-09T06:09:18;26.23;;;17.13;;
59308;SDS011;48433;53.016;-2.260;2022-09-09T06:11:45;29.65;;;17.70;;
59308;SDS011;48433;53.016;-2.260;2022-09-09T06:14:14;27.25;;;17.52;;
59308;SDS011;48433;53.016;-2.260;2022-09-09T06:16:45;27.80;;;17.38;;
59308;SDS011;48433;53.016;-2.260;2022-09-09T06:19:18;31.67;;;18.90;;
59308;SDS011;48433;53.016;-2.260;2022-09-09T06:21:48;31.08;;;19.38;;
59308;SDS011;48433;53.016;-2.260;2022-09-09T06:24:17;29.60;;;18.13;;
59308;SDS011;48433;53.016;-2.260;2022-09-09T06:26:46;30.10;;;18.20;;
59308;SDS011;48433;53.016;-2.260;2022-09-09T06:29:23;30.15;;;18.67;;
59308;SDS011;48433;53.016;-2.260;2022-09-09T06:31:52;30.15;;;18.10;;
59308;SDS011;48433;53.016;-2.260;2022-09-09T06:34:21;35.13;;;18.13;;
59308;SDS011;48433;53.016;-2.260;2022-09-09T06:36:53;31.00;;;18.27;;
59308;SDS011;48433;53.016;-2.260;2022-09-09T06:39:25;34.00;;;18.00;;
59308;SDS011;48433;53.016;-2.260;2022-09-09T06:41:52;36.55;;;17.90;;
59308;SDS011;48433;53.016;-2.260;2022-09-09T06:44:40;25.98;;;16.05;;
59308;SDS011;48433;53.016;-2.260;2022-09-09T06:47:12;28.40;;;17.75;;
59308;SDS011;48433;53.016;-2.260;2022-09-09T06:49:41;27.58;;;16.75;;
59308;SDS011;48433;53.016;-2.260;2022-09-09T06:52:14;30.10;;;18.50;;
59308;SDS011;48433;53.016;-2.260;2022-09-09T06:54:43;27.58;;;17.58;;
59308;SDS011;48433;53.016;-2.260;2022-09-09T06:57:14;29.92;;;17.15;;
59308;SDS011;48433;53.016;-2.260;2022-09-09T07:00:02;32.05;;;16.77;;
59308;SDS011;48433;53.016;-2.260;2022-09-09T07:02:30;27.02;;;16.73;;
59308;SDS011;48433;53.016;-2.260;2022-09-09T07:04:58;27.92;;;17.00;;
59308;SDS011;48433;53.016;-2.260;2022-09-09T07:07:26;37.67;;;17.42;;
59308;SDS011;48433;53.016;-2.260;2022-09-09T07:09:55;32.65;;;17.30;;
59308;SDS011;48433;53.016;-2.260;2022-09-09T07:12:23;32.33;;;18.02;;
59308;SDS011;48433;53.016;-2.260;2022-09-09T07:14:56;29.20;;;16.90;;
59308;SDS011;48433;53.016;-2.260;2022-09-09T07:17:23;25.83;;;16.42;;
59308;SDS011;48433;53.016;-2.260;2022-09-09T07:19:51;34.95;;;17.90;;
59308;SDS011;48433;53.016;-2.260;2022-09-09T07:22:20;29.10;;;16.80;;
59308;SDS011;48433;53.016;-2.260;2022-09-09T07:24:48;27.95;;;17.95;;
59308;SDS011;48433;53.016;-2.260;2022-09-09T07:27:16;30.40;;;17.10;;
59308;SDS011;48433;53.016;-2.260;2022-09-09T07:29:44;32.63;;;17.35;;
59308;SDS011;48433;53.016;-2.260;2022-09-09T07:32:13;29.77;;;18.90;;
59308;SDS011;48433;53.016;-2.260;2022-09-09T07:34:40;28.55;;;17.73;;
59308;SDS011;48433;53.016;-2.260;2022-09-09T07:37:08;28.75;;;18.58;;
59308;SDS011;48433;53.016;-2.260;2022-09-09T07:39:40;26.60;;;18.17;;
59308;SDS011;48433;53.016;-2.260;2022-09-09T07:42:08;31.88;;;18.63;;
59308;SDS011;48433;53.016;-2.260;2022-09-09T07:44:38;33.40;;;19.03;;
59308;SDS011;48433;53.016;-2.260;2022-09-09T07:47:13;28.73;;;18.00;;
59308;SDS011;48433;53.016;-2.260;2022-09-09T07:49:46;26.77;;;18.27;;
59308;SDS011;48433;53.016;-2.260;2022-09-09T07:52:18;31.40;;;19.70;;
59308;SDS011;48433;53.016;-2.260;2022-09-09T07:54:52;29.83;;;20.00;;
59308;SDS011;48433;53.016;-2.260;2022-09-09T07:57:20;31.67;;;21.30;;
59308;SDS011;48433;53.016;-2.260;2022-09-09T07:59:49;32.35;;;21.55;;
59308;SDS011;48433;53.016;-2.260;2022-09-09T08:02:17;36.70;;;21.85;;
59308;SDS011;48433;53.016;-2.260;2022-09-09T08:04:45;31.33;;;21.35;;
59308;SDS011;48433;53.016;-2.260;2022-09-09T08:07:15;35.03;;;22.08;;
59308;SDS011;48433;53.016;-2.260;2022-09-09T08:09:50;29.02;;;21.65;;
59308;SDS011;48433;53.016;-2.260;2022-09-09T08:12:23;31.50;;;21.17;;
59308;SDS011;48433;53.016;-2.260;2022-09-09T08:14:51;28.02;;;21.17;;
59308;SDS011;48433;53.016;-2.260;2022-09-09T08:17:23;31.55;;;23.00;;
59308;SDS011;48433;53.016;-2.260;2022-09-09T08:19:50;30.45;;;21.80;;
59308;SDS011;48433;53.016;-2.260;2022-09-09T08:22:22;33.70;;;22.85;;
59308;SDS011;48433;53.016;-2.260;2022-09-09T08:24:51;31.42;;;21.33;;
59308;SDS011;48433;53.016;-2.260;2022-09-09T08:27:19;31.00;;;20.55;;
59308;SDS011;48433;53.016;-2.260;2022-09-09T08:29:47;33.60;;;21.98;;
59308;SDS011;48433;53.016;-2.260;2022-09-09T08:32:16;30.35;;;21.67;;
59308;SDS011;48433;53.016;-2.260;2022-09-09T08:34:45;28.45;;;21.23;;
59308;SDS011;48433;53.016;-2.260;2022-09-09T08:37:18;28.90;;;19.90;;
59308;SDS011;48433;53.016;-2.260;2022-09-09T08:39:47;29.83;;;20.77;;
59308;SDS011;48433;53.016;-2.260;2022-09-09T08:42:28;29.58;;;21.88;;
59308;SDS011;48433;53.016;-2.260;2022-09-09T08:50:36;32.15;;;21.33;;
59308;SDS011;48433;53.016;-2.260;2022-09-09T08:55:58;32.88;;;21.35;;
59308;SDS011;48433;53.016;-2.260;2022-09-09T08:58:47;27.20;;;19.75;;
59308;SDS011;48433;53.016;-2.260;2022-09-09T09:01:38;25.73;;;19.25;;
59308;SDS011;48433;53.016;-2.260;2022-09-09T09:09:44;26.98;;;19.02;;
59308;SDS011;48433;53.016;-2.260;2022-09-09T09:12:35;24.63;;;18.00;;
59308;SDS011;48433;53.016;-2.260;2022-09-09T09:15:12;24.50;;;18.73;;
59308;SDS011;48433;53.016;-2.260;2022-09-09T09:17:46;27.15;;;19.15;;
59308;SDS011;48433;53.016;-2.260;2022-09-09T09:20:16;27.17;;;18.08;;
59308;SDS011;48433;53.016;-2.260;2022-09-09T09:22:51;25.73;;;16.30;;
59308;SDS011;48433;53.016;-2.260;2022-09-09T09:25:27;22.80;;;17.08;;
59308;SDS011;48433;53.016;-2.260;2022-09-09T09:28:10;22.00;;;16.02;;
59308;SDS011;48433;53.016;-2.260;2022-09-09T09:30:49;22.98;;;17.00;;
59308;SDS011;48433;53.016;-2.260;2022-09-09T09:33:23;24.10;;;16.55;;
59308;SDS011;48433;53.016;-2.260;2022-09-09T09:35:52;18.17;;;13.65;;
59308;SDS011;48433;53.016;-2.260;2022-09-09T09:38:22;19.67;;;14.20;;
59308;SDS011;48433;53.016;-2.260;2022-09-09T09:41:12;23.73;;;15.30;;
59308;SDS011;48433;53.016;-2.260;2022-09-09T09:43:41;23.15;;;15.13;;
59308;SDS011;48433;53.016;-2.260;2022-09-09T09:46:20;18.40;;;14.38;;
59308;SDS011;48433;53.016;-2.260;2022-09-09T09:49:00;19.48;;;12.98;;
59308;SDS011;48433;53.016;-2.260;2022-09-09T09:51:37;25.13;;;13.55;;
59308;SDS011;48433;53.016;-2.260;2022-09-09T09:56:41;19.17;;;13.30;;
59308;SDS011;48433;53.016;-2.260;2022-09-09T10:02:05;19.17;;;13.63;;
59308;SDS011;48433;53.016;-2.260;2022-09-09T10:04:39;21.00;;;14.50;;
59308;SDS011;48433;53.016;-2.260;2022-09-09T10:07:12;22.20;;;15.15;;
59308;SDS011;48433;53.016;-2.260;2022-09-09T10:09:43;22.58;;;16.23;;
59308;SDS011;48433;53.016;-2.260;2022-09-09T10:20:45;24.75;;;19.38;;
59308;SDS011;48433;53.016;-2.260;2022-09-09T10:26:40;24.30;;;17.38;;
59308;SDS011;48433;53.016;-2.260;2022-09-09T10:46:46;21.65;;;11.13;;
59308;SDS011;48433;53.016;-2.260;2022-09-09T10:52:15;16.33;;;11.48;;
59308;SDS011;48433;53.016;-2.260;2022-09-09T10:57:43;19.38;;;10.23;;
59308;SDS011;48433;53.016;-2.260;2022-09-09T11:02:50;14.85;;;8.95;;
59308;SDS011;48433;53.016;-2.260;2022-09-09T11:05:26;15.40;;;8.43;;
59308;SDS011;48433;53.016;-2.260;2022-09-09T11:08:09;14.02;;;7.88;;
59308;SDS011;48433;53.016;-2.260;2022-09-09T11:11:06;14.55;;;8.65;;
59308;SDS011;48433;53.016;-2.260;2022-09-09T11:14:20;15.38;;;8.07;;
59308;SDS011;48433;53.016;-2.260;2022-09-09T11:16:53;14.82;;;8.18;;
59308;SDS011;48433;53.016;-2.260;2022-09-09T11:19:33;16.27;;;9.38;;
59308;SDS011;48433;53.016;-2.260;2022-09-09T11:27:22;13.10;;;8.15;;
59308;SDS011;48433;53.016;-2.260;2022-09-09T11:30:55;13.25;;;7.97;;
59308;SDS011;48433;53.016;-2.260;2022-09-09T11:33:46;16.05;;;8.20;;
59308;SDS011;48433;53.016;-2.260;2022-09-09T11:36:43;14.13;;;7.28;;
59308;SDS011;48433;53.016;-2.260;2022-09-09T11:42:07;11.90;;;7.60;;
59308;SDS011;48433;53.016;-2.260;2022-09-09T11:44:46;12.85;;;6.90;;
59308;SDS011;48433;53.016;-2.260;2022-09-09T11:47:24;11.75;;;7.70;;
59308;SDS011;48433;53.016;-2.260;2022-09-09T11:52:43;11.80;;;7.60;;
59308;SDS011;48433;53.016;-2.260;2022-09-09T11:55:32;13.30;;;7.00;;
59308;SDS011;48433;53.016;-2.260;2022-09-09T11:58:05;11.70;;;6.57;;
59308;SDS011;48433;53.016;-2.260;2022-09-09T12:00:37;12.70;;;8.07;;
59308;SDS011;48433;53.016;-2.260;2022-09-09T12:06:17;11.68;;;6.55;;
59308;SDS011;48433;53.016;-2.260;2022-09-09T12:09:13;13.23;;;7.05;;
59308;SDS011;48433;53.016;-2.260;2022-09-09T12:11:42;10.32;;;6.10;;
59308;SDS011;48433;53.016;-2.260;2022-09-09T12:14:23;11.48;;;5.43;;
59308;SDS011;48433;53.016;-2.260;2022-09-09T12:17:29;11.25;;;5.32;;
59308;SDS011;48433;53.016;-2.260;2022-09-09T12:20:08;11.00;;;4.95;;
59308;SDS011;48433;53.016;-2.260;2022-09-09T12:34:04;9.85;;;3.90;;
59308;SDS011;48433;53.016;-2.260;2022-09-09T12:36:45;11.07;;;3.45;;
59308;SDS011;48433;53.016;-2.260;2022-09-09T12:39:30;8.80;;;4.40;;
59308;SDS011;48433;53.016;-2.260;2022-09-09T12:42:02;10.32;;;5.63;;
59308;SDS011;48433;53.016;-2.260;2022-09-09T12:44:31;11.60;;;6.53;;
59308;SDS011;48433;53.016;-2.260;2022-09-09T12:47:00;15.98;;;9.48;;
59308;SDS011;48433;53.016;-2.260;2022-09-09T12:52:07;10.32;;;6.78;;
59308;SDS011;48433;53.016;-2.260;2022-09-09T12:54:43;11.90;;;6.90;;
59308;SDS011;48433;53.016;-2.260;2022-09-09T12:57:15;10.25;;;6.13;;
59308;SDS011;48433;53.016;-2.260;2022-09-09T12:59:43;11.35;;;6.22;;
59308;SDS011;48433;53.016;-2.260;2022-09-09T13:04:47;10.70;;;4.80;;
59308;SDS011;48433;53.016;-2.260;2022-09-09T13:07:18;10.53;;;5.90;;
59308;SDS011;48433;53.016;-2.260;2022-09-09T13:09:46;10.07;;;5.20;;
59308;SDS011;48433;53.016;-2.260;2022-09-09T13:12:17;18.90;;;4.50;;
59308;SDS011;48433;53.016;-2.260;2022-09-09T13:14:47;11.02;;;3.33;;
59308;SDS011;48433;53.016;-2.260;2022-09-09T13:17:19;7.93;;;2.47;;
59308;SDS011;48433;53.016;-2.260;2022-09-09T13:19:51;9.75;;;3.45;;
59308;SDS011;48433;53.016;-2.260;2022-09-09T13:22:21;10.45;;;3.08;;
59308;SDS011;48433;53.016;-2.260;2022-09-09T13:25:01;9.52;;;4.32;;
59308;SDS011;48433;53.016;-2.260;2022-09-09T13:27:54;11.60;;;4.30;;
59308;SDS011;48433;53.016;-2.260;2022-09-09T13:30:23;12.90;;;5.13;;
59308;SDS011;48433;53.016;-2.260;2022-09-09T13:33:17;13.13;;;5.65;;
59308;SDS011;48433;53.016;-2.260;2022-09-09T13:35:50;10.70;;;5.80;;
59308;SDS011;48433;53.016;-2.260;2022-09-09T13:38:23;10.85;;;5.70;;
59308;SDS011;48433;53.016;-2.260;2022-09-09T13:41:03;14.32;;;6.30;;
59308;SDS011;48433;53.016;-2.260;2022-09-09T13:43:37;11.68;;;5.78;;
59308;SDS011;48433;53.016;-2.260;2022-09-09T13:49:01;19.63;;;7.22;;
59308;SDS011;48433;53.016;-2.260;2022-09-09T13:51:50;15.73;;;5.97;;
59308;SDS011;48433;53.016;-2.260;2022-09-09T13:54:20;17.17;;;5.97;;
59308;SDS011;48433;53.016;-2.260;2022-09-09T13:56:48;13.10;;;6.47;;
59308;SDS011;48433;53.016;-2.260;2022-09-09T13:59:17;10.80;;;6.32;;
59308;SDS011;48433;53.016;-2.260;2022-09-09T14:02:08;12.07;;;5.80;;
59308;SDS011;48433;53.016;-2.260;2022-09-09T14:04:36;8.98;;;4.45;;
59308;SDS011;48433;53.016;-2.260;2022-09-09T14:07:03;11.50;;;4.15;;
59308;SDS011;48433;53.016;-2.260;2022-09-09T14:09:31;12.15;;;4.65;;
59308;SDS011;48433;53.016;-2.260;2022-09-09T14:11:58;17.02;;;4.57;;
59308;SDS011;48433;53.016;-2.260;2022-09-09T14:14:27;9.75;;;4.70;;
59308;SDS011;48433;53.016;-2.260;2022-09-09T14:16:55;10.10;;;5.50;;
59308;SDS011;48433;53.016;-2.260;2022-09-09T14:19:22;11.00;;;5.30;;
59308;SDS011;48433;53.016;-2.260;2022-09-09T14:21:50;10.73;;;4.85;;
59308;SDS011;48433;53.016;-2.260;2022-09-09T14:24:17;10.48;;;5.45;;
59308;SDS011;48433;53.016;-2.260;2022-09-09T14:26:45;11.98;;;5.88;;
59308;SDS011;48433;53.016;-2.260;2022-09-09T14:29:12;12.82;;;5.68;;
59308;SDS011;48433;53.016;-2.260;2022-09-09T14:31:40;11.43;;;4.85;;
59308;SDS011;48433;53.016;-2.260;2022-09-09T14:34:08;10.02;;;4.95;;
59308;SDS011;48433;53.016;-2.260;2022-09-09T14:36:37;13.80;;;4.45;;
59308;SDS011;48433;53.016;-2.260;2022-09-09T14:39:05;10.77;;;3.95;;
59308;SDS011;48433;53.016;-2.260;2022-09-09T14:41:33;8.07;;;3.40;;
59308;SDS011;48433;53.016;-2.260;2022-09-09T14:44:00;6.95;;;3.35;;
59308;SDS011;48433;53.016;-2.260;2022-09-09T14:46:28;7.05;;;2.65;;
59308;SDS011;48433;53.016;-2.260;2022-09-09T14:48:56;7.43;;;2.72;;
59308;SDS011;48433;53.016;-2.260;2022-09-09T14:51:24;7.65;;;2.75;;
59308;SDS011;48433;53.016;-2.260;2022-09-09T14:53:55;6.70;;;2.65;;
59308;SDS011;48433;53.016;-2.260;2022-09-09T14:56:26;4.53;;;2.00;;
59308;SDS011;48433;53.016;-2.260;2022-09-09T14:58:57;6.97;;;2.60;;
59308;SDS011;48433;53.016;-2.260;2022-09-09T15:01:25;9.57;;;2.83;;
59308;SDS011;48433;53.016;-2.260;2022-09-09T15:03:55;8.68;;;2.78;;
59308;SDS011;48433;53.016;-2.260;2022-09-09T15:06:25;5.93;;;2.50;;
59308;SDS011;48433;53.016;-2.260;2022-09-09T15:08:56;7.75;;;2.45;;
59308;SDS011;48433;53.016;-2.260;2022-09-09T15:11:28;10.57;;;3.22;;
59308;SDS011;48433;53.016;-2.260;2022-09-09T15:14:01;8.32;;;2.70;;
59308;SDS011;48433;53.016;-2.260;2022-09-09T15:16:29;7.32;;;2.70;;
59308;SDS011;48433;53.016;-2.260;2022-09-09T15:18:57;5.82;;;2.60;;
59308;SDS011;48433;53.016;-2.260;2022-09-09T15:21:30;7.72;;;2.75;;
59308;SDS011;48433;53.016;-2.260;2022-09-09T15:23:59;9.95;;;3.10;;
59308;SDS011;48433;53.016;-2.260;2022-09-09T15:26:27;5.53;;;2.35;;
59308;SDS011;48433;53.016;-2.260;2022-09-09T15:28:56;6.93;;;2.35;;
59308;SDS011;48433;53.016;-2.260;2022-09-09T15:31:27;7.63;;;2.80;;
59308;SDS011;48433;53.016;-2.260;2022-09-09T15:36:29;8.13;;;3.33;;
59308;SDS011;48433;53.016;-2.260;2022-09-09T15:39:02;7.32;;;3.30;;
59308;SDS011;48433;53.016;-2.260;2022-09-09T15:41:31;8.43;;;3.67;;
59308;SDS011;48433;53.016;-2.260;2022-09-09T15:43:59;8.20;;;3.60;;
59308;SDS011;48433;53.016;-2.260;2022-09-09T15:46:31;10.82;;;4.20;;
59308;SDS011;48433;53.016;-2.260;2022-09-09T15:49:19;10.25;;;4.35;;
59308;SDS011;48433;53.016;-2.260;2022-09-09T15:51:58;8.75;;;4.15;;
59308;SDS011;48433;53.016;-2.260;2022-09-09T15:54:31;7.68;;;4.63;;
59308;SDS011;48433;53.016;-2.260;2022-09-09T15:57:01;10.32;;;4.55;;
59308;SDS011;48433;53.016;-2.260;2022-09-09T15:59:31;8.10;;;3.92;;
59308;SDS011;48433;53.016;-2.260;2022-09-09T16:02:00;11.30;;;5.07;;
59308;SDS011;48433;53.016;-2.260;2022-09-09T16:04:28;9.48;;;4.40;;
59308;SDS011;48433;53.016;-2.260;2022-09-09T16:07:00;8.90;;;3.67;;
59308;SDS011;48433;53.016;-2.260;2022-09-09T16:09:30;7.72;;;1.75;;
59308;SDS011;48433;53.016;-2.260;2022-09-09T16:11:59;8.30;;;2.00;;
59308;SDS011;48433;53.016;-2.260;2022-09-09T16:14:28;7.30;;;1.55;;
59308;SDS011;48433;53.016;-2.260;2022-09-09T16:17:01;8.65;;;2.03;;
59308;SDS011;48433;53.016;-2.260;2022-09-09T16:19:30;6.75;;;1.58;;
59308;SDS011;48433;53.016;-2.260;2022-09-09T16:21:58;5.38;;;1.63;;
59308;SDS011;48433;53.016;-2.260;2022-09-09T16:24:26;4.75;;;1.40;;
59308;SDS011;48433;53.016;-2.260;2022-09-09T16:26:54;4.45;;;1.05;;
59308;SDS011;48433;53.016;-2.260;2022-09-09T16:29:22;3.15;;;1.17;;
59308;SDS011;48433;53.016;-2.260;2022-09-09T16:31:50;3.80;;;1.30;;
59308;SDS011;48433;53.016;-2.260;2022-09-09T16:34:18;6.60;;;1.35;;
59308;SDS011;48433;53.016;-2.260;2022-09-09T16:36:47;7.00;;;1.85;;
59308;SDS011;48433;53.016;-2.260;2022-09-09T16:39:16;2.63;;;1.05;;
59308;SDS011;48433;53.016;-2.260;2022-09-09T16:41:46;5.68;;;1.27;;
59308;SDS011;48433;53.016;-2.260;2022-09-09T16:44:15;3.15;;;1.30;;
59308;SDS011;48433;53.016;-2.260;2022-09-09T16:46:45;3.22;;;1.27;;
59308;SDS011;48433;53.016;-2.260;2022-09-09T16:49:15;5.13;;;1.50;;
59308;SDS011;48433;53.016;-2.260;2022-09-09T16:51:44;3.40;;;1.30;;
59308;SDS011;48433;53.016;-2.260;2022-09-09T16:54:16;8.75;;;1.75;;
59308;SDS011;48433;53.016;-2.260;2022-09-09T16:56:46;7.32;;;1.60;;
59308;SDS011;48433;53.016;-2.260;2022-09-09T16:59:15;6.82;;;1.48;;
59308;SDS011;48433;53.016;-2.260;2022-09-09T17:01:45;7.07;;;1.75;;
59308;SDS011;48433;53.016;-2.260;2022-09-09T17:04:16;3.28;;;1.13;;
59308;SDS011;48433;53.016;-2.260;2022-09-09T17:06:48;6.88;;;1.73;;
59308;SDS011;48433;53.016;-2.260;2022-09-09T17:09:17;3.25;;;1.15;;
59308;SDS011;48433;53.016;-2.260;2022-09-09T17:11:45;4.35;;;1.23;;
59308;SDS011;48433;53.016;-2.260;2022-09-09T17:14:16;4.80;;;1.30;;
59308;SDS011;48433;53.016;-2.260;2022-09-09T17:16:44;5.28;;;1.15;;
59308;SDS011;48433;53.016;-2.260;2022-09-09T17:19:13;8.02;;;1.50;;
59308;SDS011;48433;53.016;-2.260;2022-09-09T17:21:41;8.18;;;1.35;;
59308;SDS011;48433;53.016;-2.260;2022-09-09T17:24:29;7.95;;;1.60;;